Time;durP1;ratioP1;P1;durP2;ratioP2;P2;SDS_P1;SDS_P2;PMS_P1;PMS_P2;Temp;Humidity;BMP_temperature;BMP_pressure;BME280_temperature;BME280_humidity;BME280_pressure;Samples;Min_cycle;Max_cycle;Signal;HPM_P1;HPM_P2
2022/05/13 00:02:06;;;;;;;5.30;1.40;;;20.30;52.00;;;;;;4476426;32;20497;-84
2022/05/13 00:04:32;;;;;;;5.80;1.50;;;20.30;52.00;;;;;;4476345;32;20097;-84
2022/05/13 00:06:59;;;;;;;4.82;1.20;;;20.30;52.10;;;;;;4476608;32;20093;-84
2022/05/13 00:10:07;;;;;;;3.42;1.10;;;20.30;52.10;;;;;;4476558;32;20066;-84
2022/05/13 00:12:14;;;;;;;5.78;1.30;;;20.30;52.10;;;;;;4473649;32;20066;-84
2022/05/13 00:14:41;;;;;;;2.75;1.10;;;20.20;52.00;;;;;;4476332;32;20091;-84
2022/05/13 00:17:07;;;;;;;4.93;1.30;;;20.20;52.00;;;;;;4475897;32;20554;-84
2022/05/13 00:19:34;;;;;;;4.38;1.50;;;20.30;52.10;;;;;;4476516;32;20096;-84
2022/05/13 00:22:00;;;;;;;5.53;1.63;;;20.30;52.10;;;;;;4476428;32;20078;-84
2022/05/13 00:24:27;;;;;;;4.38;1.27;;;20.20;52.00;;;;;;4476291;32;20167;-84
2022/05/13 00:26:53;;;;;;;4.95;1.42;;;20.20;52.00;;;;;;4477691;32;20065;-84
2022/05/13 00:29:19;;;;;;;6.07;1.58;;;20.30;52.10;;;;;;4478929;31;20163;-84
2022/05/13 00:31:45;;;;;;;4.47;1.23;;;20.20;52.00;;;;;;4479126;31;20073;-85
2022/05/13 00:34:13;;;;;;;5.03;1.50;;;20.20;52.00;;;;;;4479094;31;20495;-85
2022/05/13 00:36:39;;;;;;;2.47;1.10;;;20.20;52.10;;;;;;4479043;32;20089;-83
2022/05/13 00:39:07;;;;;;;4.15;1.20;;;20.20;52.10;;;;;;4478484;31;20073;-84
2022/05/13 00:41:34;;;;;;;3.25;1.10;;;20.20;52.10;;;;;;4478403;32;20089;-85
2022/05/13 00:44:00;;;;;;;2.47;1.00;;;20.20;52.10;;;;;;4478798;32;20101;-84
2022/05/13 00:46:30;;;;;;;3.90;1.00;;;20.20;52.10;;;;;;4479375;32;20372;-84
2022/05/13 00:48:59;;;;;;;3.35;1.10;;;20.20;52.10;;;;;;4479027;31;20066;-84
2022/05/13 00:51:31;;;;;;;3.55;1.17;;;20.20;52.10;;;;;;4478722;31;20184;-84
2022/05/13 00:53:58;;;;;;;5.75;1.55;;;20.20;52.10;;;;;;4479052;31;20689;-84
2022/05/13 00:56:25;;;;;;;2.78;0.93;;;20.10;53.00;;;;;;4478964;32;20091;-84
2022/05/13 00:58:56;;;;;;;5.13;1.33;;;20.20;52.10;;;;;;4478594;31;20073;-84
2022/05/13 01:01:22;;;;;;;2.40;0.95;;;20.10;52.10;;;;;;4478623;31;20275;-84
2022/05/13 01:03:50;;;;;;;2.75;1.00;;;20.10;52.10;;;;;;4478627;31;20082;-83
2022/05/13 01:06:22;;;;;;;4.85;1.48;;;20.10;52.10;;;;;;4478586;31;20494;-84
2022/05/13 01:08:48;;;;;;;4.45;1.15;;;20.10;52.10;;;;;;4478786;32;20124;-84
2022/05/13 01:11:18;;;;;;;3.55;1.33;;;20.10;52.10;;;;;;4478697;31;20089;-84
2022/05/13 01:13:48;;;;;;;4.95;1.30;;;20.10;52.10;;;;;;4478624;31;20183;-84
2022/05/13 01:16:14;;;;;;;3.75;1.08;;;20.10;52.10;;;;;;4478248;31;20419;-83
2022/05/13 01:18:43;;;;;;;1.80;0.82;;;20.10;52.10;;;;;;4478314;31;20083;-84
2022/05/13 01:21:18;;;;;;;2.30;0.68;;;20.10;52.20;;;;;;4478338;32;20422;-84
2022/05/13 01:23:45;;;;;;;2.53;1.00;;;20.10;52.20;;;;;;4478297;31;20092;-84
2022/05/13 01:26:29;;;;;;;3.08;1.00;;;20.10;52.20;;;;;;4478226;31;20085;-84
2022/05/13 01:28:56;;;;;;;;;;;20.10;52.20;;;;;;4478949;31;20089;-84
2022/05/13 01:31:33;;;;;;;2.20;0.80;;;20.10;52.20;;;;;;4478130;32;20033;-84
2022/05/13 01:34:02;;;;;;;3.85;0.93;;;20.10;52.20;;;;;;4478144;32;20089;-83
2022/05/13 01:36:29;;;;;;;2.22;1.10;;;20.10;52.20;;;;;;4477982;32;20540;-84
2022/05/13 01:38:55;;;;;;;3.80;1.00;;;20.10;52.30;;;;;;4476894;31;20159;-83
2022/05/13 01:41:22;;;;;;;2.55;0.90;;;20.00;52.20;;;;;;4477868;31;20584;-84
2022/05/13 01:43:55;;;;;;;2.53;0.85;;;20.10;52.20;;;;;;4477886;31;20096;-85
2022/05/13 01:46:22;;;;;;;4.38;1.02;;;20.10;52.30;;;;;;4478030;32;20065;-84
2022/05/13 01:48:49;;;;;;;3.72;1.10;;;20.00;52.20;;;;;;4477899;31;20113;-83
2022/05/13 01:51:15;;;;;;;2.45;0.90;;;20.00;52.20;;;;;;4477835;31;20502;-84
2022/05/13 01:53:41;;;;;;;2.60;1.05;;;20.00;52.20;;;;;;4477834;31;20065;-84
2022/05/13 01:56:08;;;;;;;3.28;1.10;;;20.00;52.20;;;;;;4477684;32;20120;-84
2022/05/13 01:58:35;;;;;;;2.80;0.90;;;20.00;52.20;;;;;;4477777;31;20081;-84
2022/05/13 02:01:03;;;;;;;3.40;0.90;;;20.00;52.20;;;;;;4477501;32;20084;-84
2022/05/13 02:03:44;;;;;;;1.92;0.80;;;20.00;52.30;;;;;;4477772;31;20230;-84
2022/05/13 02:06:11;;;;;;;2.13;0.85;;;20.00;52.30;;;;;;4477798;31;20053;-84
2022/05/13 02:08:37;;;;;;;2.80;0.88;;;20.00;52.30;;;;;;4477294;32;20124;-83
2022/05/13 02:11:03;;;;;;;2.03;0.90;;;20.00;52.30;;;;;;4477281;31;20154;-84
2022/05/13 02:13:29;;;;;;;3.17;0.85;;;20.00;52.30;;;;;;4477614;31;20151;-83
2022/05/13 02:15:55;;;;;;;4.30;1.00;;;20.00;52.30;;;;;;4477422;32;20211;-84
2022/05/13 02:18:21;;;;;;;3.13;0.80;;;20.00;52.30;;;;;;4477225;32;20085;-84
2022/05/13 02:20:48;;;;;;;2.60;0.95;;;20.00;52.30;;;;;;4476470;32;20131;-82
2022/05/13 02:23:18;;;;;;;4.55;1.05;;;20.00;52.30;;;;;;4477341;31;20085;-84
2022/05/13 02:25:44;;;;;;;2.05;0.95;;;20.00;52.30;;;;;;4477641;31;20227;-84
2022/05/13 02:28:10;;;;;;;2.13;0.75;;;20.00;52.30;;;;;;4477263;32;20058;-84
2022/05/13 02:30:36;;;;;;;2.42;0.82;;;20.00;52.30;;;;;;4476173;32;20077;-84
2022/05/13 02:33:01;;;;;;;4.78;0.95;;;20.00;52.30;;;;;;4477395;31;20124;-84
2022/05/13 02:35:27;;;;;;;2.13;0.80;;;20.00;52.30;;;;;;4476246;32;20227;-83
2022/05/13 02:37:53;;;;;;;2.63;0.90;;;19.90;52.20;;;;;;4477110;32;20070;-77
2022/05/13 02:40:21;;;;;;;2.58;1.05;;;19.90;52.30;;;;;;4477102;31;20082;-84
2022/05/13 02:42:48;;;;;;;2.50;0.88;;;19.90;52.30;;;;;;4476918;31;20510;-84
2022/05/13 02:45:14;;;;;;;1.55;0.73;;;19.90;52.30;;;;;;4477234;32;20165;-84
2022/05/13 02:47:41;;;;;;;1.90;0.70;;;19.90;52.30;;;;;;4477098;31;20469;-84
2022/05/13 02:50:21;;;;;;;3.08;0.90;;;19.90;52.30;;;;;;4476856;31;20073;-84
2022/05/13 02:52:52;;;;;;;2.13;0.73;;;19.90;52.30;;;;;;4477245;31;20640;-84
2022/05/13 02:55:19;;;;;;;1.73;0.63;;;19.90;52.30;;;;;;4477395;32;20251;-84
2022/05/13 02:57:45;;;;;;;1.80;0.85;;;19.90;52.30;;;;;;4476922;31;20081;-84
2022/05/13 03:00:12;;;;;;;2.67;0.88;;;19.90;52.30;;;;;;4476837;32;20073;-84
2022/05/13 03:02:38;;;;;;;1.35;0.68;;;19.90;52.30;;;;;;4475828;32;20231;-84
2022/05/13 03:05:05;;;;;;;1.67;0.70;;;19.90;52.30;;;;;;4476910;31;20125;-84
2022/05/13 03:07:31;;;;;;;2.67;0.85;;;19.90;52.40;;;;;;4477101;32;20415;-84
2022/05/13 03:09:57;;;;;;;1.70;0.60;;;19.90;52.30;;;;;;4476753;31;20152;-84
2022/05/13 03:12:23;;;;;;;2.28;0.80;;;19.90;52.40;;;;;;4476706;32;20100;-84
2022/05/13 03:14:49;;;;;;;1.23;0.52;;;19.90;52.40;;;;;;4477130;31;20065;-83
2022/05/13 03:17:15;;;;;;;1.52;0.60;;;19.90;52.30;;;;;;4476859;32;20085;-84
2022/05/13 03:19:41;;;;;;;2.53;0.70;;;19.90;52.40;;;;;;4476527;32;20065;-84
2022/05/13 03:22:07;;;;;;;1.77;0.70;;;19.90;52.40;;;;;;4477319;32;20529;-84
2022/05/13 03:24:34;;;;;;;3.30;0.80;;;19.90;52.40;;;;;;4476680;32;20077;-84
2022/05/13 03:27:00;;;;;;;2.65;1.00;;;19.80;52.30;;;;;;4476644;32;20099;-84
2022/05/13 03:29:27;;;;;;;1.70;0.70;;;19.90;52.40;;;;;;4476546;32;20082;-82
2022/05/13 03:31:54;;;;;;;2.83;0.90;;;19.80;52.40;;;;;;4476643;32;20088;-80
2022/05/13 03:34:21;;;;;;;2.85;0.80;;;19.80;52.40;;;;;;4476795;32;20080;-84
2022/05/13 03:36:51;;;;;;;2.88;0.73;;;19.80;52.40;;;;;;4476824;32;20085;-84
2022/05/13 03:39:17;;;;;;;2.40;0.77;;;19.80;52.40;;;;;;4476641;32;20074;-84
2022/05/13 03:41:43;;;;;;;1.73;0.60;;;19.80;52.40;;;;;;4476073;32;20542;-84
2022/05/13 03:44:09;;;;;;;1.80;0.80;;;19.80;52.40;;;;;;4476485;32;20096;-84
2022/05/13 03:46:35;;;;;;;1.75;0.80;;;19.80;52.40;;;;;;4476235;32;20384;-84
2022/05/13 03:49:03;;;;;;;2.60;0.60;;;19.80;52.50;;;;;;4476505;32;20093;-84
2022/05/13 03:51:29;;;;;;;1.73;0.75;;;19.80;52.50;;;;;;4476480;32;20367;-83
2022/05/13 03:53:55;;;;;;;2.03;0.70;;;19.80;52.50;;;;;;4476239;32;20093;-83
2022/05/13 03:56:21;;;;;;;1.70;0.65;;;19.80;52.50;;;;;;4476401;32;20159;-83
2022/05/13 03:58:47;;;;;;;2.08;0.82;;;19.80;52.50;;;;;;4476076;32;20050;-84
2022/05/13 04:01:12;;;;;;;1.45;0.77;;;19.80;52.60;;;;;;4477469;32;20077;-84
2022/05/13 04:03:38;;;;;;;2.72;0.65;;;19.80;52.60;;;;;;4479026;31;20222;-82
2022/05/13 04:08:58;;;;;;;4.07;0.60;;;19.80;52.60;;;;;;4479450;32;20163;-84
2022/05/13 04:11:37;;;;;;;1.92;0.85;;;19.80;52.60;;;;;;4479314;31;20087;-83
2022/05/13 04:16:53;;;;;;;1.42;0.65;;;19.80;52.60;;;;;;4479110;32;20069;-84
2022/05/13 04:19:19;;;;;;;1.90;0.57;;;19.80;52.60;;;;;;4478979;31;20143;-83
2022/05/13 04:21:46;;;;;;;2.35;0.85;;;19.80;52.70;;;;;;4478748;31;20203;-83
2022/05/13 04:24:16;;;;;;;1.58;0.90;;;19.80;52.70;;;;;;4479358;31;20092;-83
2022/05/13 04:26:44;;;;;;;2.03;0.68;;;19.80;52.70;;;;;;4479188;31;20089;-84
2022/05/13 04:29:10;;;;;;;1.70;0.75;;;19.80;52.70;;;;;;4479444;32;20073;-84
2022/05/13 04:31:39;;;;;;;2.42;0.80;;;19.80;52.70;;;;;;4479092;32;20081;-84
2022/05/13 04:34:06;;;;;;;1.73;0.77;;;19.80;52.70;;;;;;4478918;31;20133;-84
2022/05/13 04:36:32;;;;;;;3.30;0.77;;;19.80;52.70;;;;;;4478712;32;20109;-82
2022/05/13 04:38:58;;;;;;;0.98;0.52;;;19.70;52.70;;;;;;4478266;32;20109;-83
2022/05/13 04:44:12;;;;;;;2.95;0.85;;;19.70;52.70;;;;;;4478569;32;20133;-80
2022/05/13 04:46:38;;;;;;;2.03;0.60;;;19.70;52.70;;;;;;4478940;31;20251;-83
2022/05/13 04:49:05;;;;;;;2.05;0.73;;;19.70;52.70;;;;;;4478437;31;20507;-82
2022/05/13 04:51:31;;;;;;;1.73;0.63;;;19.70;52.70;;;;;;4478362;31;20427;-84
2022/05/13 04:53:58;;;;;;;1.92;0.60;;;19.70;52.70;;;;;;4478740;31;20092;-84
2022/05/13 04:56:26;;;;;;;1.42;0.60;;;19.70;52.80;;;;;;4478721;31;20116;-84
2022/05/13 04:58:52;;;;;;;1.65;0.75;;;19.70;52.70;;;;;;4478525;31;20088;-84
2022/05/13 05:01:19;;;;;;;2.15;0.70;;;19.70;52.80;;;;;;4478900;31;20267;-84
2022/05/13 05:03:46;;;;;;;1.33;0.60;;;19.70;52.80;;;;;;4478507;31;20099;-83
2022/05/13 05:06:13;;;;;;;1.65;0.70;;;19.70;52.80;;;;;;4478874;31;20069;-84
2022/05/13 05:08:40;;;;;;;1.85;0.70;;;19.70;53.70;;;;;;4478264;31;20525;-84
2022/05/13 05:11:08;;;;;;;2.08;0.60;;;19.70;52.80;;;;;;4478680;31;20101;-84
2022/05/13 05:13:40;;;;;;;2.15;0.73;;;19.70;52.80;;;;;;4478388;31;20069;-83
2022/05/13 05:16:07;;;;;;;2.55;0.70;;;19.70;52.80;;;;;;4478409;31;20073;-84
2022/05/13 05:18:34;;;;;;;2.47;0.80;;;19.70;52.90;;;;;;4478340;31;20073;-84
2022/05/13 05:21:01;;;;;;;3.05;0.70;;;19.70;53.80;;;;;;4478508;31;20166;-84
2022/05/13 05:23:30;;;;;;;2.85;0.73;;;19.70;52.90;;;;;;4478346;31;20074;-83
2022/05/13 05:25:55;;;;;;;2.13;0.63;;;19.70;52.90;;;;;;4478222;31;20117;-84
2022/05/13 05:28:22;;;;;;;2.05;0.80;;;19.70;52.90;;;;;;4478246;31;20077;-84
2022/05/13 05:30:51;;;;;;;3.55;0.63;;;19.70;52.90;;;;;;4476913;32;20458;-84
2022/05/13 05:33:17;;;;;;;1.40;0.70;;;19.70;53.00;;;;;;4478127;31;20128;-82
2022/05/13 05:35:43;;;;;;;1.17;0.50;;;19.70;52.90;;;;;;4478258;31;20481;-83
2022/05/13 05:38:09;;;;;;;2.40;0.65;;;19.70;53.00;;;;;;4477807;31;20485;-84
2022/05/13 05:40:36;;;;;;;1.80;0.88;;;19.70;52.90;;;;;;4477810;32;20081;-84
2022/05/13 05:43:05;;;;;;;1.63;0.60;;;19.70;53.00;;;;;;4477854;32;20203;-84
2022/05/13 05:45:31;;;;;;;2.80;0.93;;;19.70;53.00;;;;;;4477730;32;20081;-82
2022/05/13 05:47:57;;;;;;;1.48;0.65;;;19.70;53.10;;;;;;4477700;32;20088;-84
2022/05/13 05:50:23;;;;;;;3.65;1.05;;;19.70;53.10;;;;;;4477673;31;20085;-84
2022/05/13 05:52:49;;;;;;;2.03;0.75;;;19.60;53.00;;;;;;4477642;31;20104;-84
2022/05/13 05:58:07;;;;;;;2.78;0.70;;;19.70;53.10;;;;;;4477732;32;20077;-82
2022/05/13 06:00:35;;;;;;;1.83;0.60;;;19.70;53.10;;;;;;4477966;31;20502;-84
2022/05/13 06:03:02;;;;;;;3.22;0.80;;;19.60;53.10;;;;;;4477736;32;20084;-82
2022/05/13 06:05:28;;;;;;;1.70;0.65;;;19.60;53.10;;;;;;4477540;31;20117;-83
2022/05/13 06:07:57;;;;;;;2.17;0.90;;;19.60;53.10;;;;;;4477199;31;20065;-82
2022/05/13 06:10:24;;;;;;;2.20;0.70;;;19.60;53.10;;;;;;4477368;31;20081;-83
2022/05/13 06:12:50;;;;;;;1.17;0.63;;;19.60;53.20;;;;;;4477338;31;20088;-84
2022/05/13 06:15:17;;;;;;;1.52;0.77;;;19.60;53.10;;;;;;4477203;32;20077;-82
2022/05/13 06:17:45;;;;;;;1.58;0.68;;;19.60;53.20;;;;;;4477378;31;20190;-79
2022/05/13 06:20:11;;;;;;;1.27;0.60;;;19.60;53.20;;;;;;4477069;31;20135;-84
2022/05/13 06:22:38;;;;;;;1.80;0.57;;;19.60;53.20;;;;;;4476037;32;20092;-84
2022/05/13 06:25:04;;;;;;;1.80;0.70;;;19.60;53.20;;;;;;4476597;32;20493;-80
2022/05/13 06:27:30;;;;;;;2.47;0.80;;;19.60;53.20;;;;;;4477131;32;20065;-83
2022/05/13 06:29:57;;;;;;;2.42;0.70;;;19.60;53.20;;;;;;4477550;31;20081;-84
2022/05/13 06:32:23;;;;;;;2.63;0.80;;;19.60;53.30;;;;;;4476004;32;20410;-81
2022/05/13 06:34:48;;;;;;;3.22;0.80;;;19.60;53.30;;;;;;4476991;32;20102;-82
2022/05/13 06:37:14;;;;;;;2.45;0.90;;;19.60;53.30;;;;;;4476759;31;20085;-81
2022/05/13 06:39:40;;;;;;;1.98;0.90;;;19.60;53.30;;;;;;4476876;32;20081;-80
2022/05/13 06:42:06;;;;;;;2.60;0.75;;;19.60;53.30;;;;;;4476812;32;20170;-81
2022/05/13 06:44:32;;;;;;;2.33;0.75;;;19.60;53.30;;;;;;4476867;31;20398;-86
2022/05/13 06:46:58;;;;;;;1.90;0.82;;;19.60;53.30;;;;;;4476837;31;20518;-83
2022/05/13 06:49:23;;;;;;;2.72;0.80;;;19.60;53.40;;;;;;4476776;32;20069;-79
2022/05/13 06:51:49;;;;;;;3.80;1.10;;;19.60;53.50;;;;;;4476711;32;20080;-82
2022/05/13 06:54:15;;;;;;;3.05;1.10;;;19.60;53.60;;;;;;4476483;32;20135;-82
2022/05/13 06:56:41;;;;;;;3.00;1.30;;;19.60;53.60;;;;;;4476743;32;20150;-79
2022/05/13 06:59:09;;;;;;;4.13;1.20;;;19.60;53.60;;;;;;4476950;31;20092;-82
2022/05/13 07:01:36;;;;;;;5.43;1.10;;;19.60;53.60;;;;;;4476638;31;20215;-80
2022/05/13 07:04:04;;;;;;;6.93;1.52;;;19.60;53.70;;;;;;4476609;32;20117;-79
2022/05/13 07:06:30;;;;;;;3.45;1.20;;;19.60;54.10;;;;;;4476701;32;20092;-81
2022/05/13 07:08:56;;;;;;;6.25;1.45;;;19.60;54.20;;;;;;4476585;31;20585;-79
2022/05/13 07:11:23;;;;;;;4.30;1.15;;;19.60;54.30;;;;;;4476378;31;20208;-79
2022/05/13 07:13:49;;;;;;;5.93;1.33;;;19.60;54.30;;;;;;4476503;32;20235;-81
2022/05/13 07:16:14;;;;;;;9.50;1.83;;;19.60;54.30;;;;;;4476698;32;20084;-81
2022/05/13 07:18:42;;;;;;;4.55;1.40;;;19.70;54.50;;;;;;4476557;32;20057;-81
2022/05/13 07:21:08;;;;;;;6.47;1.23;;;19.70;54.40;;;;;;4476613;32;20085;-81
2022/05/13 07:23:34;;;;;;;3.60;1.25;;;19.80;54.50;;;;;;4475378;32;20077;-81
2022/05/13 07:26:00;;;;;;;5.47;1.27;;;19.80;54.50;;;;;;4476463;32;20073;-82
2022/05/13 07:28:26;;;;;;;3.47;1.13;;;19.80;54.50;;;;;;4476369;32;20493;-80
2022/05/13 07:30:54;;;;;;;4.85;1.23;;;19.90;54.50;;;;;;4476671;32;20199;-81
2022/05/13 07:33:21;;;;;;;5.95;1.58;;;19.90;54.50;;;;;;4476602;32;20083;-79
2022/05/13 07:35:47;;;;;;;6.05;1.85;;;20.00;54.60;;;;;;4476563;32;20065;-80
2022/05/13 07:38:14;;;;;;;4.70;1.50;;;20.00;54.60;;;;;;4479355;32;20097;-81
2022/05/13 07:43:24;;;;;;;5.05;1.02;;;20.00;54.50;;;;;;4479784;32;20158;-82
2022/05/13 07:45:50;;;;;;;6.88;1.60;;;20.00;54.50;;;;;;4479190;31;20062;-81
2022/05/13 07:48:16;;;;;;;5.75;1.45;;;20.10;54.50;;;;;;4479554;32;20230;-81
2022/05/13 07:50:42;;;;;;;5.68;1.30;;;20.10;54.70;;;;;;4479488;32;20402;-78
2022/05/13 07:53:09;;;;;;;8.27;1.90;;;20.20;54.80;;;;;;4479380;32;20556;-81
2022/05/13 07:55:35;;;;;;;7.13;1.70;;;20.20;54.70;;;;;;4479322;31;20073;-80
2022/05/13 07:58:01;;;;;;;5.05;1.60;;;20.20;54.80;;;;;;4479421;31;20066;-78
2022/05/13 08:00:32;;;;;;;5.53;1.67;;;20.20;54.90;;;;;;4479437;32;20170;-78
2022/05/13 08:03:01;;;;;;;7.72;1.90;;;20.20;55.10;;;;;;4479098;31;20534;-79
2022/05/13 08:05:33;;;;;;;5.22;1.67;;;20.20;55.20;;;;;;4479478;31;20107;-79
2022/05/13 08:08:08;;;;;;;8.13;1.73;;;20.20;55.20;;;;;;4479549;31;20098;-77
2022/05/13 08:10:36;;;;;;;5.38;1.70;;;20.20;55.20;;;;;;4479332;31;20521;-77
2022/05/13 08:13:02;;;;;;;6.45;1.75;;;20.20;55.20;;;;;;4478822;31;20070;-77
2022/05/13 08:15:28;;;;;;;6.07;1.60;;;20.20;55.20;;;;;;4478997;31;20077;-77
2022/05/13 08:17:54;;;;;;;7.78;1.60;;;20.20;55.20;;;;;;4478859;31;20208;-76
2022/05/13 08:20:21;;;;;;;6.60;1.40;;;20.20;55.20;;;;;;4478808;31;20092;-77
2022/05/13 08:22:47;;;;;;;5.63;1.42;;;20.20;55.20;;;;;;4478951;32;20539;-78
2022/05/13 08:25:13;;;;;;;4.07;1.45;;;20.10;55.10;;;;;;4479002;32;20087;-79
2022/05/13 08:27:40;;;;;;;7.30;1.67;;;20.10;55.10;;;;;;4479078;32;20100;-80
2022/05/13 08:30:06;;;;;;;6.50;1.70;;;20.20;55.20;;;;;;4478755;32;20396;-71
2022/05/13 08:32:33;;;;;;;5.60;1.40;;;20.20;55.20;;;;;;4478566;32;20085;-71
2022/05/13 08:34:59;;;;;;;6.35;1.55;;;20.20;55.20;;;;;;4478768;31;20077;-78
2022/05/13 08:37:25;;;;;;;5.35;1.30;;;20.20;55.10;;;;;;4479169;31;20379;-78
2022/05/13 08:39:51;;;;;;;5.55;1.20;;;20.20;55.10;;;;;;4478672;31;20096;-73
2022/05/13 08:42:35;;;;;;;3.80;1.25;;;20.20;55.00;;;;;;4478605;31;20092;-72
2022/05/13 08:45:03;;;;;;;5.35;1.52;;;20.30;55.00;;;;;;4478712;32;20168;-78
2022/05/13 08:47:49;;;;;;;5.68;1.65;;;20.30;54.80;;;;;;4478282;31;20309;-78
2022/05/13 08:50:30;;;;;;;4.10;1.30;;;20.30;54.80;;;;;;4478862;31;20092;-80
2022/05/13 08:53:20;;;;;;;5.82;1.45;;;20.30;54.80;;;;;;4477837;32;20095;-77
2022/05/13 08:55:48;;;;;;;8.25;1.80;;;20.30;54.90;;;;;;4478501;31;20491;-75
2022/05/13 08:58:23;;;;;;;4.22;1.73;;;20.30;54.70;;;;;;4478406;31;20136;-75
2022/05/13 09:00:51;;;;;;;6.00;1.55;;;20.30;54.80;;;;;;4478784;31;20132;-82
2022/05/13 09:03:48;;;;;;;7.38;1.42;;;20.30;54.80;;;;;;4477207;32;20163;-88
2022/05/13 09:06:27;;;;;;;13.73;2.15;;;20.30;54.70;;;;;;4478535;31;20082;-87
2022/05/13 09:08:53;;;;;;;6.25;1.65;;;20.30;54.70;;;;;;4478583;31;20093;-87
2022/05/13 09:11:31;;;;;;;7.68;2.00;;;20.30;54.70;;;;;;4478430;32;20419;-87
2022/05/13 09:14:00;;;;;;;5.10;1.30;;;20.30;54.70;;;;;;4478411;31;20081;-85
2022/05/13 09:16:58;;;;;;;6.25;1.80;;;20.30;54.70;;;;;;4477240;32;20077;-86
2022/05/13 09:19:35;;;;;;;5.63;1.50;;;20.30;54.60;;;;;;4478321;32;20147;-89
2022/05/13 09:22:08;;;;;;;6.68;1.70;;;20.30;54.60;;;;;;4479412;31;20134;-91
2022/05/13 09:24:34;;;;;;;4.18;1.25;;;20.30;54.60;;;;;;4479335;31;20080;-90
2022/05/13 09:27:00;;;;;;;6.30;1.52;;;20.30;54.60;;;;;;4479493;31;20081;-91
2022/05/13 09:29:44;;;;;;;4.80;1.30;;;20.30;54.60;;;;;;4479086;31;20278;-88
2022/05/13 09:32:36;;;;;;;5.47;1.58;;;20.30;54.50;;;;;;4478439;31;20096;-87
2022/05/13 09:35:16;;;;;;;4.05;1.70;;;20.20;54.60;;;;;;4478027;31;20083;-88
2022/05/13 09:37:45;;;;;;;4.60;1.30;;;20.20;54.60;;;;;;4479335;31;20128;-89
2022/05/13 09:40:16;;;;;;;8.75;1.73;;;20.20;54.60;;;;;;4478953;31;20085;-89
2022/05/13 09:42:47;;;;;;;6.57;1.42;;;20.20;54.60;;;;;;4478825;31;20081;-91
2022/05/13 09:45:22;;;;;;;4.78;1.38;;;20.20;54.60;;;;;;4478753;31;20066;-88
2022/05/13 09:48:06;;;;;;;6.85;1.77;;;20.20;54.70;;;;;;4477953;32;20074;-87
2022/05/13 09:50:38;;;;;;;4.80;1.30;;;20.20;54.60;;;;;;4478214;32;20162;-87
2022/05/13 09:53:26;;;;;;;5.00;1.50;;;20.20;54.60;;;;;;4476514;32;20158;-86
2022/05/13 09:55:58;;;;;;;4.80;1.30;;;20.10;54.70;;;;;;4477918;31;20091;-84
2022/05/13 09:58:45;;;;;;;3.47;1.15;;;20.10;55.60;;;;;;4477757;31;20100;-85
2022/05/13 10:01:13;;;;;;;3.28;1.13;;;20.10;54.60;;;;;;4477497;32;20218;-86
2022/05/13 10:03:40;;;;;;;2.97;0.90;;;20.10;54.70;;;;;;4477322;32;20105;-85
2022/05/13 10:06:10;;;;;;;5.45;1.65;;;20.20;54.60;;;;;;4478091;31;20128;-89
2022/05/13 10:13:57;;;;;;;4.60;1.20;;;20.20;54.60;;;;;;4477869;31;20078;-85
2022/05/13 10:14:34;;;;;;;3.60;1.38;;;20.20;54.50;;;;;;4477801;32;20089;-86
2022/05/13 10:17:25;;;;;;;5.80;1.17;;;20.20;54.50;;;;;;4477372;32;20093;-87
2022/05/13 10:20:03;;;;;;;6.10;1.13;;;20.20;54.50;;;;;;4477659;31;20113;-85
2022/05/13 10:22:46;;;;;;;3.80;1.40;;;20.20;54.50;;;;;;4477904;32;20104;-88
2022/05/13 10:25:20;;;;;;;3.33;1.30;;;20.20;54.50;;;;;;4476920;32;20162;-86
2022/05/13 10:27:51;;;;;;;3.25;1.13;;;20.20;54.60;;;;;;4478327;32;20096;-90
2022/05/13 10:30:45;;;;;;;2.83;0.90;;;20.20;54.50;;;;;;4478237;31;20162;-88
2022/05/13 10:33:43;;;;;;;4.45;1.17;;;20.20;54.60;;;;;;4477717;31;20074;-86
2022/05/13 10:36:34;;;;;;;4.00;1.02;;;20.20;54.50;;;;;;4477624;32;20218;-88
2022/05/13 10:39:22;;;;;;;3.25;1.30;;;20.20;54.50;;;;;;4477678;32;20058;-86
2022/05/13 10:41:52;;;;;;;4.90;1.40;;;20.20;54.50;;;;;;4477440;31;20429;-88
2022/05/13 10:44:23;;;;;;;4.78;1.10;;;20.20;54.50;;;;;;4477928;31;20219;-87
2022/05/13 10:47:00;;;;;;;3.85;1.02;;;20.20;54.50;;;;;;4475845;32;20127;-87
2022/05/13 10:49:33;;;;;;;2.80;1.02;;;20.20;54.40;;;;;;4477808;31;20076;-85
2022/05/13 10:52:24;;;;;;;3.85;1.25;;;20.20;54.50;;;;;;4477423;31;20116;-86
2022/05/13 10:54:59;;;;;;;5.18;1.38;;;20.20;54.40;;;;;;4477405;31;20066;-90
2022/05/13 10:57:40;;;;;;;3.63;1.13;;;20.20;54.40;;;;;;4477366;31;20080;-89
2022/05/13 11:00:19;;;;;;;4.35;1.13;;;20.20;54.40;;;;;;4477333;32;20088;-87
2022/05/13 11:03:01;;;;;;;4.10;1.35;;;20.20;54.40;;;;;;4477460;31;20065;-88
2022/05/13 11:05:35;;;;;;;7.57;1.60;;;20.20;54.40;;;;;;4476967;32;20431;-84
2022/05/13 11:08:17;;;;;;;3.50;1.30;;;20.20;54.30;;;;;;4477156;31;20073;-89
2022/05/13 11:11:12;;;;;;;3.95;1.30;;;20.20;54.30;;;;;;4477648;32;20214;-89
2022/05/13 11:14:08;;;;;;;3.95;1.33;;;20.20;54.30;;;;;;4477243;32;20135;-89
2022/05/13 11:16:58;;;;;;;7.55;1.08;;;20.20;54.30;;;;;;4476933;31;20154;-88
2022/05/13 11:19:36;;;;;;;2.90;1.20;;;20.20;54.30;;;;;;4476351;32;20081;-88
2022/05/13 11:22:26;;;;;;;3.60;1.10;;;20.10;54.20;;;;;;4476550;32;20072;-84
2022/05/13 11:28:13;;;;;;;4.40;1.45;;;20.20;54.30;;;;;;4477304;32;20076;-88
2022/05/13 11:31:01;;;;;;;4.97;1.20;;;20.20;54.20;;;;;;4477074;32;20081;-85
2022/05/13 11:33:45;;;;;;;2.42;0.90;;;20.20;54.30;;;;;;4476914;32;20160;-86
2022/05/13 11:36:33;;;;;;;2.95;1.27;;;20.10;54.30;;;;;;4475576;32;20050;-86
2022/05/13 11:39:26;;;;;;;4.32;1.00;;;20.20;54.20;;;;;;4476545;32;20124;-85
2022/05/13 11:42:21;;;;;;;3.75;1.00;;;20.10;54.10;;;;;;4476334;32;20235;-86
2022/05/13 11:45:03;;;;;;;3.92;1.17;;;20.10;54.10;;;;;;4476472;32;20179;-86
2022/05/13 11:47:56;;;;;;;3.95;1.42;;;20.20;54.20;;;;;;4476491;32;20195;-86
2022/05/13 11:50:28;;;;;;;3.07;1.23;;;20.10;54.10;;;;;;4476291;32;20089;-86
2022/05/13 11:52:55;;;;;;;2.35;1.00;;;20.20;54.10;;;;;;4477284;32;20191;-86
2022/05/13 11:55:41;;;;;;;4.45;1.45;;;20.20;54.10;;;;;;4476114;32;20534;-86
2022/05/13 11:58:08;;;;;;;4.50;1.17;;;20.20;53.90;;;;;;4476435;32;20090;-86
2022/05/13 12:00:37;;;;;;;4.35;1.33;;;20.20;54.00;;;;;;4476442;32;20088;-84
2022/05/13 12:03:23;;;;;;;4.45;1.50;;;20.20;54.00;;;;;;4476148;32;20590;-85
2022/05/13 12:06:06;;;;;;;4.05;1.50;;;20.20;53.90;;;;;;4476013;32;20131;-86
2022/05/13 12:08:53;;;;;;;3.38;1.13;;;20.20;54.00;;;;;;4476161;32;20143;-86
2022/05/13 12:11:28;;;;;;;4.72;1.38;;;20.20;54.90;;;;;;4476576;32;20128;-86
2022/05/13 12:14:18;;;;;;;2.78;0.90;;;20.20;54.00;;;;;;4476125;32;20093;-86
2022/05/13 12:17:01;;;;;;;4.95;1.27;;;20.20;54.00;;;;;;4476269;32;20089;-89
2022/05/13 12:19:55;;;;;;;4.97;1.17;;;20.20;53.90;;;;;;4476192;32;20069;-82
2022/05/13 12:22:30;;;;;;;4.00;1.10;;;20.20;53.90;;;;;;4476180;32;20089;-88
2022/05/13 12:25:11;;;;;;;3.67;1.20;;;20.20;53.90;;;;;;4479505;31;20073;-87
2022/05/13 12:27:44;;;;;;;5.10;1.23;;;20.20;53.90;;;;;;4479505;32;20065;-86
2022/05/13 12:30:34;;;;;;;3.83;1.10;;;20.20;53.90;;;;;;4479231;31;20089;-81
2022/05/13 12:33:24;;;;;;;4.60;1.80;;;20.10;53.80;;;;;;4478700;31;20088;-81
2022/05/13 12:39:05;;;;;;;6.07;1.10;;;20.20;54.30;;;;;;4478974;32;20077;-79
2022/05/13 12:41:43;;;;;;;3.17;1.20;;;20.20;54.20;;;;;;4478745;31;20101;-78
2022/05/13 12:44:15;;;;;;;5.82;1.38;;;20.20;54.10;;;;;;4478230;31;20128;-79
2022/05/13 12:46:49;;;;;;;5.43;1.45;;;20.20;54.00;;;;;;4478624;31;20074;-79
2022/05/13 12:49:18;;;;;;;6.43;1.17;;;20.20;54.00;;;;;;4478505;31;20665;-79
2022/05/13 12:52:03;;;;;;;4.68;1.35;;;20.20;53.90;;;;;;4478497;31;20065;-79
2022/05/13 12:54:38;;;;;;;4.97;1.40;;;20.30;53.90;;;;;;4478729;31;20593;-79
2022/05/13 12:57:20;;;;;;;5.13;1.25;;;20.30;53.80;;;;;;4478748;31;20057;-78
2022/05/13 12:59:51;;;;;;;3.13;1.10;;;20.30;53.80;;;;;;4478304;32;20120;-78
2022/05/13 13:02:21;;;;;;;4.90;1.42;;;20.30;53.70;;;;;;4478073;32;20085;-78
2022/05/13 13:04:57;;;;;;;3.72;1.27;;;20.30;53.70;;;;;;4478541;31;20081;-78
2022/05/13 13:07:28;;;;;;;10.93;1.60;;;20.30;53.60;;;;;;4478272;31;20084;-78
2022/05/13 13:09:54;;;;;;;6.60;1.40;;;20.30;53.60;;;;;;4477854;32;20137;-78
2022/05/13 13:12:25;;;;;;;3.75;1.15;;;20.30;53.60;;;;;;4478213;31;20558;-78
2022/05/13 13:15:08;;;;;;;3.63;1.02;;;20.30;53.50;;;;;;4478218;31;20065;-78
2022/05/13 13:17:48;;;;;;;6.28;1.10;;;20.40;53.50;;;;;;4478403;32;20077;-78
2022/05/13 13:20:18;;;;;;;5.40;1.10;;;20.40;53.60;;;;;;4477848;32;20070;-78
2022/05/13 13:22:47;;;;;;;4.95;1.15;;;20.40;53.60;;;;;;4478205;31;20215;-78
2022/05/13 13:25:24;;;;;;;4.32;1.30;;;20.40;53.50;;;;;;4477887;32;20093;-78
2022/05/13 13:27:55;;;;;;;4.13;1.20;;;20.40;53.50;;;;;;4478234;32;20184;-78
2022/05/13 13:30:22;;;;;;;4.28;1.40;;;20.40;53.50;;;;;;4477937;31;20227;-77
2022/05/13 13:32:50;;;;;;;7.43;1.00;;;20.40;53.50;;;;;;4477845;31;20061;-77